Latest Coastal Weather Observations for Frederick Reef

IDQ60701

Issued at 4:21 pm EST Monday 23 October 2017 (issued every 10 minutes, with the page automatically refreshed every 10 minutes)

About coastal observations | Map of coastal stations | Coastal observations for QLD | Marine services | Other Formats
Station Details ID: 200701 Name: FREDERICK REEF Lat: -20.94 Lon: 154.40 Height: 4.9 m
Data from the previous 72 hours. | See also: Recent months for locations in Queensland
Date/Time
EST
Temp
°C
Wind Pressure Rain since
9am
mm
Weather Cloud Vis
km
Sea
Height
m
Swell
Dir  Spd
kts
Gust
kts
hPa Trend Height
m
Period
s
Dir
23/04:00pm 24.2 SSW 8 - 1012.5 - - - - - - - - -
23/03:59pm 24.2 SSW 8 9 1012.5 - - - - - - - - -
23/03:29pm 24.2 SSE 9 11 1012.4 - - - - - - - - -
23/03:00pm 24.3 SSE 9 - 1012.3 - - - - - - - - -
23/02:59pm 24.4 SSE 9 11 1012.3 - - - - - - - - -
23/02:29pm 24.3 SE 9 11 1012.3 - - - - - - - - -
23/02:00pm 24.3 SSE 9 - 1012.2 - - - - - - - - -
23/01:59pm 24.2 SE 9 10 1012.4 - - - - - - - - -
23/01:29pm 24.3 SSE 8 10 1012.4 - - - - - - - - -
23/01:00pm 24.3 SE 7 - 1012.3 - - - - - - - - -
23/12:59pm 24.1 SE 8 9 1012.5 - - - - - - - - -
23/12:29pm 24.0 SE 8 10 1012.4 - - - - - - - - -
23/12:00pm 24.0 SSE 8 - 1012.8 - - - - - - - - -
23/11:59am 24.1 SE 6 8 1013.0 - - - - - - - - -
23/11:29am 24.1 SSE 6 7 1013.4 - - - - - - - - -
23/11:00am 24.0 SE 7 - 1013.4 - - - - - - - - -
23/10:59am 24.0 SE 7 8 1013.6 - - - - - - - - -
23/10:29am 24.0 SE 6 7 1013.6 - - - - - - - - -
23/10:00am 23.9 ESE 6 - 1013.5 - - - - - - - - -
23/09:59am 23.9 ESE 7 8 1013.8 - - - - - - - - -
23/09:29am 23.9 ESE 7 9 1013.6 - - - - - - - - -
23/09:00am 24.0 SSW 7 - 1013.7 - - - - - - - - -
23/08:59am 24.1 SSW 7 8 1013.8 - - - - - - - - -
23/08:29am 24.1 SSW 7 8 1013.6 - - - - - - - - -
23/08:00am 24.4 S 7 - 1013.1 - - - - - - - - -
23/07:59am 24.1 S 8 9 1013.1 - - - - - - - - -
23/07:29am 24.2 SW 6 8 1013.0 - - - - - - - - -
23/07:00am 24.3 SSW 6 - 1012.6 - - - - - - - - -
23/06:59am 24.2 SW 6 7 1012.7 - - - - - - - - -
23/06:29am 24.2 S 8 9 1012.5 - - - - - - - - -
23/06:00am 23.9 S 7 - 1012.4 - - - - - - - - -
23/05:59am 23.9 SSW 7 8 1012.5 - - - - - - - - -
23/05:29am 23.6 S 8 9 1012.4 - - - - - - - - -
23/05:00am 23.4 S 8 - 1012.1 - - - - - - - - -
23/04:59am 23.4 S 8 9 1012.2 - - - - - - - - -
23/04:29am 23.4 S 9 11 1011.8 - - - - - - - - -
23/04:00am 23.4 S 9 - 1011.6 - - - - - - - - -
23/03:59am 23.4 S 9 11 1011.7 - - - - - - - - -
23/03:29am 23.4 S 9 10 1011.3 - - - - - - - - -
23/03:00am 23.4 S 10 - 1011.1 - - - - - - - - -
23/02:59am 23.4 S 10 12 1011.1 - - - - - - - - -
23/02:29am 23.3 S 10 12 1011.0 - - - - - - - - -
23/02:00am 23.3 S 11 - 1010.9 - - - - - - - - -
23/01:59am 23.3 S 12 14 1011.0 - - - - - - - - -
23/01:29am 23.3 S 12 14 1011.2 - - - - - - - - -
23/01:00am 23.3 S 13 - 1011.2 - - - - - - - - -
23/12:59am 23.3 S 12 14 1011.4 - - - - - - - - -
23/12:29am 23.4 SSE 13 15 1011.7 - - - - - - - - -
23/12:00am 23.4 SSE 14 - 1012.1 - - - - - - - - -
 
Date/Time
EST
Temp
°C
Wind Pressure Rain since
9am
mm
Weather Cloud Vis
km
Sea
Height
m
Swell
Dir  Spd
kts
Gust
kts
hPa Trend Height
m
Period
s
Dir
22/11:59pm 23.5 SSE 14 15 1012.2 - - - - - - - - -
22/11:29pm 23.6 S 14 16 1012.2 - - - - - - - - -
22/11:00pm 23.7 S 14 - 1012.3 - - - - - - - - -
22/10:59pm 23.6 S 15 16 1012.4 - - - - - - - - -
22/10:29pm 23.7 SSE 14 16 1012.4 - - - - - - - - -
22/10:00pm 23.6 S 10 - 1012.4 - - - - - - - - -
22/09:59pm 23.5 S 10 11 1012.5 - - - - - - - - -
22/09:29pm 23.5 S 13 15 1012.5 - - - - - - - - -
22/09:00pm 23.4 S 16 - 1012.2 - - - - - - - - -
22/08:59pm 23.4 S 15 17 1012.2 - - - - - - - - -
22/08:29pm 23.8 S 12 14 1012.1 - - - - - - - - -
22/08:00pm 23.6 S 14 - 1011.9 - - - - - - - - -
22/07:59pm 23.9 S 14 16 1011.9 - - - - - - - - -
22/07:29pm 23.9 S 11 14 1011.7 - - - - - - - - -
22/07:00pm 24.0 S 10 - 1011.5 - - - - - - - - -
22/06:59pm 24.0 S 11 13 1011.6 - - - - - - - - -
22/06:29pm 24.0 S 11 14 1011.1 - - - - - - - - -
22/06:00pm 24.0 S 11 - 1010.8 - - - - - - - - -
22/05:59pm 24.0 S 11 13 1010.9 - - - - - - - - -
22/05:29pm 24.0 S 12 14 1010.4 - - - - - - - - -
22/05:00pm 24.0 S 12 - 1010.0 - - - - - - - - -
22/04:59pm 23.9 S 12 13 1010.0 - - - - - - - - -
22/04:29pm 23.7 S 11 12 1009.6 - - - - - - - - -
22/04:00pm 23.8 S 10 - 1009.5 - - - - - - - - -
22/03:59pm 23.7 S 10 11 1009.5 - - - - - - - - -
22/03:29pm 23.6 S 10 12 1009.3 - - - - - - - - -
22/03:00pm 23.5 S 10 - 1009.2 - - - - - - - - -
22/02:59pm 23.6 S 10 11 1009.3 - - - - - - - - -
22/02:29pm 23.4 S 10 12 1009.1 - - - - - - - - -
22/02:00pm 23.6 S 9 - 1009.3 - - - - - - - - -
22/01:59pm 23.3 S 9 11 1009.4 - - - - - - - - -
22/01:29pm 23.2 S 9 11 1009.2 - - - - - - - - -
22/01:00pm 23.1 SSE 11 - 1009.4 - - - - - - - - -
22/12:59pm 23.1 SSE 11 13 1009.5 - - - - - - - - -
22/12:29pm 22.7 S 13 15 1009.8 - - - - - - - - -
22/12:00pm 22.9 S 15 - 1009.9 - - - - - - - - -
22/11:30am 22.9 S 6 7 1010.6 - - - - - - - - -
22/11:00am 22.6 SSE 6 8 1010.6 - - - - - - - - -
22/10:30am 22.0 S 7 9 1011.0 - - - - - - - - -
22/10:00am 21.9 SSW 8 9 1011.2 - - - - - - - - -
 
Date/Time
EST
Temp
°C
Wind Pressure Rain since
9am
mm
Weather Cloud Vis
km
Sea
Height
m
Swell
Dir  Spd
kts
Gust
kts
hPa Trend Height
m
Period
s
Dir
21/10:00pm 23.0 WSW 4 - 1012.6 - - - - - - - - -
21/09:00pm 23.9 S 11 - 1012.7 - - - - - - - - -
21/08:30pm 24.2 W 3 4 1012.9 - - - - - - - - -
21/08:00pm 24.2 W 4 5 1012.7 - - - - - - - - -
21/07:30pm 24.2 W 3 4 1012.7 - - - - - - - - -
21/07:00pm 24.2 W 2 5 1012.5 - - - - - - - - -
21/06:30pm 24.1 WSW 2 4 1012.3 - - - - - - - - -
21/06:00pm 24.1 WSW 3 4 1011.9 - - - - - - - - -
21/05:30pm 24.1 W 5 7 1011.9 - - - - - - - - -
21/05:00pm 24.0 WSW 4 9 1011.4 - - - - - - - - -
21/04:30pm 24.0 WSW 1 3 1011.3 - - - - - - - - -
21/04:00pm 24.2 SW 1 6 1011.1 - - - - - - - - -
21/03:30pm 24.0 ENE 7 9 1011.2 - - - - - - - - -
21/03:00pm 24.0 ENE 10 12 1011.1 - - - - - - - - -
21/02:30pm 23.8 ENE 8 10 1011.5 - - - - - - - - -
21/02:00pm 23.8 NE 12 14 1011.6 - - - - - - - - -
21/01:30pm 23.3 NE 11 13 1011.9 - - - - - - - - -
21/01:00pm 24.1 ENE 11 12 1012.1 - - - - - - - - -
21/12:30pm 24.1 E 10 12 1012.7 - - - - - - - - -
21/12:00pm 24.1 E 9 11 1013.0 - - - - - - - - -
21/11:30am 23.8 E 10 11 1013.5 - - - - - - - - -
21/11:00am 23.5 E 9 11 1013.8 - - - - - - - - -
21/10:30am 23.7 E 8 9 1014.1 - - - - - - - - -
21/10:00am 23.8 ENE 9 12 1014.2 - - - - - - - - -
21/09:30am 24.1 ENE 10 11 1014.3 - - - - - - - - -
21/09:00am 24.1 E 7 8 1014.5 - - - - - - - - -
21/01:00am 23.7 E 15 - 1014.4 - - - - - - - - -
21/12:00am 23.6 E 17 - 1015.0 - - - - - - - - -
 
Date/Time
EST
Temp
°C
Wind Pressure Rain since
9am
mm
Weather Cloud Vis
km
Sea
Height
m
Swell
Dir  Spd
kts
Gust
kts
hPa Trend Height
m
Period
s
Dir
20/11:00pm 23.9 E 18 - 1015.7 - - - - - - - - -
20/10:30pm 23.7 ESE 17 19 1016.1 - - - - - - - - -
20/10:00pm 23.7 ESE 17 20 1016.2 - - - - - - - - -
20/09:30pm 24.0 E 18 20 1016.3 - - - - - - - - -
20/09:00pm 23.9 ESE 18 22 1016.3 - - - - - - - - -
20/08:30pm 23.5 ESE 17 19 1016.3 - - - - - - - - -
20/08:00pm 23.7 ESE 19 22 1016.1 - - - - - - - - -
20/07:30pm 24.0 E 17 19 1016.0 - - - - - - - - -
20/07:00pm 24.0 ESE 18 19 1016.0 - - - - - - - - -
20/06:30pm 23.8 ESE 17 19 1016.0 - - - - - - - - -
20/06:00pm 24.0 ESE 18 21 1015.7 - - - - - - - - -
20/05:30pm 23.8 ESE 17 19 1015.6 - - - - - - - - -
20/05:00pm 24.2 ESE 17 19 1015.3 - - - - - - - - -
20/04:30pm 23.7 ESE 17 19 1015.3 - - - - - - - - -

Other Formats:

Comma delimited format used in spreadsheet applications
http://www.bom.gov.au/fwo/IDQ60701/IDQ60701.94393.axf

JavaScript Object Notation format (JSON) in row-major order
http://www.bom.gov.au/fwo/IDQ60701/IDQ60701.94393.json